createdAt,value
2018-09-04T00:00:07.597Z,16.97
2018-09-04T00:01:43.025Z,16.60
2018-09-04T00:03:18.753Z,17.27
2018-09-04T00:04:54.685Z,16.53
2018-09-04T00:06:30.100Z,16.00
2018-09-04T00:08:05.679Z,18.60
2018-09-04T00:09:41.187Z,17.43
2018-09-04T00:11:16.673Z,17.80
2018-09-04T00:12:52.207Z,17.03
2018-09-04T00:14:27.689Z,16.40
2018-09-04T00:16:09.918Z,16.60
2018-09-04T00:17:45.444Z,16.23
2018-09-04T00:19:21.050Z,18.13
2018-09-04T00:20:56.505Z,18.37
2018-09-04T00:22:32.931Z,17.77
2018-09-04T00:24:08.546Z,18.10
2018-09-04T00:25:45.198Z,18.33
2018-09-04T00:27:20.694Z,18.00
2018-09-04T00:28:56.208Z,19.23
2018-09-04T00:30:31.702Z,18.60
2018-09-04T00:32:07.436Z,18.87
2018-09-04T00:33:42.953Z,19.90
2018-09-04T00:35:18.455Z,20.37
2018-09-04T00:36:54.882Z,20.10
2018-09-04T00:38:30.358Z,18.37
2018-09-04T00:40:06.506Z,20.13
2018-09-04T00:41:42.010Z,20.60
2018-09-04T00:43:17.501Z,21.07
2018-09-04T00:44:53.153Z,19.67
2018-09-04T00:46:28.610Z,20.03
2018-09-04T00:48:04.192Z,19.53
2018-09-04T00:49:39.814Z,20.57
2018-09-04T00:51:15.377Z,21.60
2018-09-04T00:52:51.464Z,21.20
2018-09-04T00:54:26.964Z,22.07
2018-09-04T00:56:02.504Z,20.83
2018-09-04T00:57:38.046Z,20.17
2018-09-04T00:59:13.569Z,19.80
2018-09-04T01:00:49.948Z,17.87
2018-09-04T01:02:25.442Z,18.17
2018-09-04T01:04:00.929Z,18.07
2018-09-04T01:05:36.528Z,21.03
2018-09-04T01:07:13.505Z,19.87
2018-09-04T01:08:49.153Z,19.50
2018-09-04T01:10:24.615Z,19.63
2018-09-04T01:12:00.079Z,19.57
2018-09-04T01:13:40.296Z,20.47
2018-09-04T01:15:15.809Z,20.33
2018-09-04T01:16:51.333Z,19.53
2018-09-04T01:18:27.327Z,20.17
2018-09-04T01:20:03.488Z,19.60
2018-09-04T01:21:38.974Z,18.73
2018-09-04T01:23:14.451Z,19.07
2018-09-04T01:24:49.890Z,17.53
2018-09-04T01:26:25.385Z,18.90
2018-09-04T01:28:00.886Z,19.13
2018-09-04T01:29:36.337Z,21.93
2018-09-04T01:31:12.702Z,22.77
2018-09-04T01:32:48.244Z,20.63
2018-09-04T01:34:23.803Z,19.30
2018-09-04T01:35:59.246Z,18.27
2018-09-04T01:37:34.722Z,18.47
2018-09-04T01:39:10.205Z,18.30
2018-09-04T01:40:45.740Z,17.40
2018-09-04T01:42:22.135Z,18.13
2018-09-04T01:43:58.697Z,18.40
2018-09-04T01:45:34.200Z,18.23
2018-09-04T01:47:09.689Z,16.87
2018-09-04T01:48:45.238Z,17.67
2018-09-04T01:50:20.708Z,17.60
2018-09-04T01:51:56.177Z,20.13
2018-09-04T01:53:32.780Z,18.97
2018-09-04T01:55:08.288Z,19.73
2018-09-04T01:56:43.787Z,22.17
2018-09-04T01:58:19.318Z,21.03
2018-09-04T01:59:54.791Z,21.07
2018-09-04T02:01:30.302Z,19.07
2018-09-04T02:03:06.864Z,18.03
2018-09-04T02:04:43.227Z,18.10
2018-09-04T02:06:18.703Z,18.47
2018-09-04T02:07:54.206Z,18.53
2018-09-04T02:09:29.687Z,18.80
2018-09-04T02:11:05.301Z,19.17
2018-09-04T02:12:40.760Z,20.77
2018-09-04T02:14:16.218Z,18.40
2018-09-04T02:15:51.861Z,19.10
2018-09-04T02:17:27.303Z,19.23
2018-09-04T02:19:02.884Z,18.87
2018-09-04T02:20:38.479Z,18.20
2018-09-04T02:22:13.952Z,18.53
2018-09-04T02:23:49.440Z,20.17
2018-09-04T02:25:24.932Z,23.70
2018-09-04T02:27:00.454Z,21.57
2018-09-04T02:28:35.965Z,20.67
2018-09-04T02:30:11.464Z,20.00
2018-09-04T02:31:47.056Z,20.87
2018-09-04T02:33:22.531Z,21.03
2018-09-04T02:34:58.101Z,21.50
2018-09-04T02:36:33.819Z,23.50
2018-09-04T02:38:09.519Z,23.27
2018-09-04T02:39:44.971Z,21.43
2018-09-04T02:41:21.465Z,20.80
2018-09-04T02:42:56.986Z,22.70
2018-09-04T02:44:32.557Z,22.50
2018-09-04T02:46:08.128Z,21.27
2018-09-04T02:47:45.726Z,24.77
2018-09-04T02:49:21.259Z,21.30
2018-09-04T02:50:56.776Z,24.17
2018-09-04T02:52:32.251Z,24.87
2018-09-04T02:54:07.776Z,23.73
2018-09-04T02:55:43.245Z,21.07
2018-09-04T02:57:20.746Z,23.60
2018-09-04T02:58:57.439Z,24.37
2018-09-04T03:00:33.018Z,20.63
2018-09-04T03:02:08.509Z,18.93
2018-09-04T03:03:44.093Z,20.60
2018-09-04T03:05:19.854Z,19.57
2018-09-04T03:06:55.686Z,19.13
2018-09-04T03:08:31.166Z,18.47
2018-09-04T03:10:07.370Z,18.33
2018-09-04T03:11:42.867Z,19.97
2018-09-04T03:13:19.425Z,18.20
2018-09-04T03:14:55.107Z,18.83
2018-09-04T03:16:30.657Z,18.57
2018-09-04T03:18:06.159Z,18.77
2018-09-04T03:19:41.690Z,19.97
2018-09-04T03:21:18.107Z,19.30
2018-09-04T03:22:53.886Z,20.77
2018-09-04T03:24:29.400Z,20.03
2018-09-04T03:26:05.200Z,20.17
2018-09-04T03:27:41.364Z,19.70
2018-09-04T03:29:16.919Z,18.53
2018-09-04T03:30:52.560Z,18.30
2018-09-04T03:32:28.004Z,17.73
2018-09-04T03:34:03.502Z,17.57
2018-09-04T03:35:39.015Z,18.73
2018-09-04T03:37:14.491Z,19.90
2018-09-04T03:38:50.034Z,22.00
2018-09-04T03:40:25.665Z,23.87
2018-09-04T03:42:01.213Z,22.13
2018-09-04T03:43:36.725Z,21.00
2018-09-04T03:45:12.214Z,20.67
2018-09-04T03:46:47.928Z,20.30
2018-09-04T03:48:23.408Z,20.57
2018-09-04T03:49:58.997Z,19.00
2018-09-04T03:51:34.475Z,19.90
2018-09-04T03:53:09.932Z,18.40
2018-09-04T03:54:45.423Z,17.27
2018-09-04T03:56:20.980Z,17.33
2018-09-04T03:57:56.499Z,17.07
2018-09-04T03:59:31.999Z,17.60
2018-09-04T04:01:08.757Z,16.87
2018-09-04T04:02:44.318Z,16.23
2018-09-04T04:04:19.909Z,16.93
2018-09-04T04:05:55.397Z,17.17
2018-09-04T04:07:30.904Z,18.30
2018-09-04T04:09:08.487Z,18.33
2018-09-04T04:10:45.184Z,17.03
2018-09-04T04:12:20.717Z,17.23
2018-09-04T04:13:56.191Z,17.63
2018-09-04T04:15:31.860Z,18.53
2018-09-04T04:17:07.412Z,19.30
2018-09-04T04:18:42.931Z,20.20
2018-09-04T04:20:18.667Z,18.70
2018-09-04T04:21:54.168Z,17.33
2018-09-04T04:23:30.878Z,16.27
2018-09-04T04:25:06.406Z,14.77
2018-09-04T04:26:41.951Z,16.47
2018-09-04T04:28:17.514Z,18.80
2018-09-04T04:29:52.986Z,16.90
2018-09-04T04:31:29.036Z,16.03
2018-09-04T04:33:10.635Z,15.50
2018-09-04T04:34:46.376Z,15.73
2018-09-04T04:36:21.874Z,15.23
2018-09-04T04:37:57.388Z,16.00
2018-09-04T04:39:32.878Z,15.43
2018-09-04T04:41:09.009Z,14.83
2018-09-04T04:42:44.821Z,15.33
2018-09-04T04:44:20.403Z,16.50
2018-09-04T04:45:55.964Z,16.50
2018-09-04T04:47:38.559Z,16.20
2018-09-04T04:49:14.035Z,16.03
2018-09-04T04:50:49.683Z,16.67
2018-09-04T04:52:26.149Z,18.93
2018-09-04T04:54:01.644Z,17.97
2018-09-04T04:55:39.001Z,16.77
2018-09-04T04:57:14.506Z,16.80
2018-09-04T04:58:50.056Z,17.17
2018-09-04T05:00:25.581Z,18.50
2018-09-04T05:02:01.118Z,18.23
2018-09-04T05:03:37.120Z,17.40
2018-09-04T05:05:13.734Z,17.63
2018-09-04T05:06:49.249Z,15.77
2018-09-04T05:08:24.739Z,16.27
2018-09-04T05:10:01.268Z,16.10
2018-09-04T05:11:36.823Z,14.83
2018-09-04T05:13:12.479Z,15.37
2018-09-04T05:14:48.043Z,16.53
2018-09-04T05:16:24.518Z,17.03
2018-09-04T05:18:00.046Z,15.57
2018-09-04T05:19:35.766Z,15.23
2018-09-04T05:21:11.255Z,17.03
2018-09-04T05:22:46.881Z,16.67
2018-09-04T05:24:22.338Z,16.17
2018-09-04T05:25:57.820Z,15.80
2018-09-04T05:27:33.369Z,16.53
2018-09-04T05:29:08.898Z,15.97
2018-09-04T05:30:44.418Z,15.63
2018-09-04T05:32:26.165Z,15.77
2018-09-04T05:34:01.759Z,16.23
2018-09-04T05:35:42.626Z,16.03
2018-09-04T05:37:18.213Z,17.37
2018-09-04T05:38:53.742Z,16.67
2018-09-04T05:40:29.222Z,15.73
2018-09-04T05:42:10.021Z,16.27
2018-09-04T05:43:48.574Z,18.20
2018-09-04T05:45:25.572Z,16.90
2018-09-04T05:47:01.097Z,18.40
2018-09-04T05:48:36.602Z,20.37
2018-09-04T05:50:12.152Z,18.37
2018-09-04T05:51:47.662Z,17.57
2018-09-04T05:53:23.149Z,15.73
2018-09-04T05:54:58.774Z,18.40
2018-09-04T05:56:34.317Z,16.53
2018-09-04T05:58:09.805Z,16.87
2018-09-04T05:59:49.547Z,16.57
2018-09-04T06:01:25.258Z,17.77
2018-09-04T06:03:01.246Z,16.30
2018-09-04T06:04:37.033Z,19.83
2018-09-04T06:06:12.510Z,18.23
2018-09-04T06:07:48.056Z,17.30
2018-09-04T06:09:29.032Z,17.50
2018-09-04T06:11:04.900Z,17.60
2018-09-04T06:12:40.539Z,17.37
2018-09-04T06:14:16.221Z,17.83
2018-09-04T06:15:51.809Z,19.77
2018-09-04T06:17:27.963Z,17.57
2018-09-04T06:19:03.628Z,18.50
2018-09-04T06:20:40.161Z,18.50
2018-09-04T06:22:16.192Z,18.10
2018-09-04T06:23:51.664Z,18.60
2018-09-04T06:25:27.286Z,20.63
2018-09-04T06:27:02.787Z,20.23
2018-09-04T06:28:38.375Z,22.13
2018-09-04T06:30:14.581Z,20.17
2018-09-04T06:31:50.135Z,19.37
2018-09-04T06:33:25.638Z,22.40
2018-09-04T06:35:01.812Z,25.07
2018-09-04T06:36:37.371Z,25.57
2018-09-04T06:38:13.488Z,30.97
2018-09-04T06:39:50.136Z,29.03
2018-09-04T06:41:25.632Z,30.80
2018-09-04T06:43:01.331Z,29.00
2018-09-04T06:44:36.832Z,25.83
2018-09-04T06:46:12.378Z,26.80
2018-09-04T06:47:48.655Z,26.80
2018-09-04T06:49:24.274Z,26.33
2018-09-04T06:51:00.112Z,25.57
2018-09-04T06:52:35.618Z,26.70
2018-09-04T06:54:11.127Z,27.57
2018-09-04T06:55:47.204Z,30.60
2018-09-04T06:57:23.129Z,28.27
2018-09-04T06:58:58.633Z,27.97
2018-09-04T07:00:34.133Z,25.83
2018-09-04T07:02:09.666Z,27.90
2018-09-04T07:05:31.739Z,31.10
2018-09-04T07:07:09.770Z,33.37
2018-09-04T07:08:45.315Z,31.47
2018-09-04T07:10:21.339Z,33.87
2018-09-04T07:11:59.467Z,31.90
2018-09-04T07:13:35.385Z,33.23
2018-09-04T07:15:12.257Z,31.80
2018-09-04T07:16:48.674Z,37.23
2018-09-04T07:18:24.187Z,36.80
2018-09-04T07:19:59.824Z,34.90
2018-09-04T07:21:36.344Z,35.47
2018-09-04T07:23:12.207Z,37.97
2018-09-04T07:24:47.706Z,36.73
2018-09-04T07:26:24.296Z,39.07
2018-09-04T07:27:59.778Z,38.47
2018-09-04T07:29:36.324Z,38.13
2018-09-04T07:31:12.035Z,36.97
2018-09-04T07:32:47.599Z,35.53
2018-09-04T07:34:23.205Z,32.23
2018-09-04T07:35:58.752Z,30.97
2018-09-04T07:37:34.252Z,31.80
2018-09-04T07:39:10.816Z,35.07
2018-09-04T07:40:46.344Z,33.70
2018-09-04T07:42:21.867Z,31.77
2018-09-04T07:43:57.351Z,34.00
2018-09-04T07:45:33.251Z,30.27
2018-09-04T07:47:08.801Z,30.03
2018-09-04T07:48:44.326Z,30.23
2018-09-04T07:50:19.847Z,30.17
2018-09-04T07:51:55.331Z,29.23
2018-09-04T07:53:31.300Z,30.57
2018-09-04T07:55:06.939Z,33.67
2018-09-04T07:56:42.419Z,34.40
2018-09-04T07:58:17.955Z,30.83
2018-09-04T07:59:53.589Z,29.33
2018-09-04T08:01:29.233Z,29.17
2018-09-04T08:03:04.701Z,31.60
2018-09-04T08:04:40.208Z,34.73
2018-09-04T08:06:15.691Z,31.90
2018-09-04T08:07:51.211Z,29.47
2018-09-04T08:09:26.663Z,36.77
2018-09-04T08:11:02.195Z,35.73
2018-09-04T08:12:39.017Z,33.50
2018-09-04T08:14:14.528Z,30.80
2018-09-04T08:15:50.158Z,33.17
2018-09-04T08:17:25.676Z,33.43
2018-09-04T08:19:01.255Z,30.60
2018-09-04T08:20:37.900Z,32.60
2018-09-04T08:22:14.351Z,32.63
2018-09-04T08:23:49.860Z,31.20
2018-09-04T08:25:29.617Z,32.60
2018-09-04T08:27:05.737Z,30.07
2018-09-04T08:28:43.341Z,31.63
2018-09-04T08:30:18.863Z,29.20
2018-09-04T08:31:54.378Z,30.60
2018-09-04T08:33:29.918Z,29.70
2018-09-04T08:35:05.398Z,29.13
2018-09-04T08:36:40.875Z,29.70
2018-09-04T08:38:16.488Z,31.77
2018-09-04T08:39:52.010Z,32.50
2018-09-04T08:41:27.507Z,31.97
2018-09-04T08:43:03.301Z,28.90
2018-09-04T08:44:38.870Z,31.47
2018-09-04T08:46:15.203Z,29.20
2018-09-04T08:47:51.758Z,30.43
2018-09-04T08:49:27.094Z,30.77
2018-09-04T08:51:02.610Z,30.97
2018-09-04T08:52:38.122Z,30.27
2018-09-04T08:54:13.627Z,27.57
2018-09-04T08:55:49.124Z,29.57
2018-09-04T08:57:24.655Z,30.20
2018-09-04T08:59:00.304Z,31.67
2018-09-04T09:00:35.848Z,29.93
2018-09-04T09:02:11.377Z,25.90
2018-09-04T09:03:46.912Z,29.85
2018-09-04T09:05:22.426Z,26.93
2018-09-04T09:06:58.287Z,24.90
2018-09-04T09:08:33.825Z,27.57
2018-09-04T09:10:09.807Z,31.23
2018-09-04T09:11:46.554Z,31.60
2018-09-04T09:13:23.084Z,30.87
2018-09-04T09:14:59.592Z,31.87
2018-09-04T09:16:35.321Z,27.03
2018-09-04T09:18:11.075Z,24.63
2018-09-04T09:19:46.613Z,23.83
2018-09-04T09:21:22.592Z,23.93
2018-09-04T09:22:58.207Z,29.07
2018-09-04T09:24:33.731Z,29.63
2018-09-04T09:26:09.299Z,25.77
2018-09-04T09:27:47.312Z,24.23
2018-09-04T09:29:23.505Z,25.10
2018-09-04T09:30:59.237Z,26.83
2018-09-04T09:32:34.764Z,28.93
2018-09-04T09:34:10.364Z,31.10
2018-09-04T09:35:45.898Z,26.87
2018-09-04T09:37:21.667Z,27.10
2018-09-04T09:38:57.256Z,29.47
2018-09-04T09:40:32.793Z,30.30
2018-09-04T09:42:11.791Z,29.77
2018-09-04T09:43:47.320Z,26.60
2018-09-04T09:45:23.245Z,27.50
2018-09-04T09:47:01.926Z,26.20
2018-09-04T09:48:40.317Z,29.17
2018-09-04T09:50:15.895Z,27.07
2018-09-04T09:51:51.390Z,26.13
2018-09-04T09:53:27.025Z,23.73
2018-09-04T09:55:02.460Z,30.07
2018-09-04T09:56:38.010Z,29.47
2018-09-04T09:58:13.564Z,28.53
2018-09-04T09:59:49.203Z,24.43
2018-09-04T10:01:30.812Z,27.70
2018-09-04T10:03:11.695Z,23.47
2018-09-04T10:04:47.216Z,25.43
2018-09-04T10:06:22.806Z,27.03
2018-09-04T10:07:58.426Z,25.27
2018-09-04T10:09:33.884Z,25.40
2018-09-04T10:11:10.194Z,26.47
2018-09-04T10:12:47.729Z,27.57
2018-09-04T10:14:23.283Z,28.77
2018-09-04T10:15:59.766Z,25.53
2018-09-04T10:17:35.638Z,23.90
2018-09-04T10:19:11.882Z,27.63
2018-09-04T10:20:48.646Z,25.33
2018-09-04T10:22:24.269Z,24.83
2018-09-04T10:23:59.808Z,26.20
2018-09-04T10:25:35.310Z,25.40
2018-09-04T10:27:10.811Z,24.77
2018-09-04T10:28:46.320Z,26.70
2018-09-04T10:30:21.934Z,24.03
2018-09-04T10:31:57.423Z,22.40
2018-09-04T10:33:32.986Z,24.07
2018-09-04T10:35:08.525Z,25.90
2018-09-04T10:36:45.014Z,23.60
2018-09-04T10:38:24.061Z,22.77
2018-09-04T10:40:05.065Z,23.53
2018-09-04T10:41:40.544Z,23.10
2018-09-04T10:43:16.035Z,23.30
2018-09-04T10:44:51.852Z,22.57
2018-09-04T10:46:27.358Z,22.80
2018-09-04T10:48:02.987Z,20.60
2018-09-04T10:49:38.468Z,20.83
2018-09-04T10:51:14.016Z,19.37
2018-09-04T10:52:49.766Z,21.83
2018-09-04T10:54:25.265Z,18.43
2018-09-04T10:56:00.757Z,20.17
2018-09-04T10:57:36.300Z,17.90
2018-09-04T10:59:11.829Z,16.83
2018-09-04T11:00:47.346Z,18.90
2018-09-04T11:02:22.957Z,18.27
2018-09-04T11:03:58.367Z,19.37
2018-09-04T11:05:33.898Z,18.10
2018-09-04T11:07:10.891Z,17.63
2018-09-04T11:08:46.550Z,18.57
2018-09-04T11:10:22.116Z,16.50
2018-09-04T11:11:57.853Z,16.03
2018-09-04T11:13:33.845Z,15.33
2018-09-04T11:15:09.605Z,16.80
2018-09-04T11:16:45.828Z,16.27
2018-09-04T11:18:21.352Z,18.00
2018-09-04T11:19:56.905Z,17.60
2018-09-04T11:21:33.105Z,17.83
2018-09-04T11:23:08.698Z,18.20
2018-09-04T11:24:44.248Z,17.23
2018-09-04T11:26:19.838Z,16.03
2018-09-04T11:27:55.883Z,16.10
2018-09-04T11:31:11.890Z,16.57
2018-09-04T11:32:47.452Z,16.80
2018-09-04T11:34:27.193Z,17.70
2018-09-04T11:36:02.729Z,17.87
2018-09-04T11:37:38.274Z,14.53
2018-09-04T11:39:13.738Z,14.90
2018-09-04T11:40:50.072Z,14.40
2018-09-04T11:42:25.617Z,13.80
2018-09-04T11:44:01.219Z,17.23
2018-09-04T11:45:37.522Z,18.27
2018-09-04T11:47:13.434Z,16.33
2018-09-04T11:48:49.676Z,15.45
2018-09-04T11:50:25.153Z,18.12
2018-09-04T11:52:00.704Z,16.57
2018-09-04T11:53:36.238Z,17.77
2018-09-04T11:55:12.080Z,16.00
2018-09-04T11:56:47.537Z,19.30
2018-09-04T11:58:23.968Z,18.13
2018-09-04T11:59:59.924Z,19.10
2018-09-04T12:01:36.296Z,18.63
2018-09-04T12:03:13.280Z,19.77
2018-09-04T12:04:48.809Z,20.40
2018-09-04T12:06:24.767Z,18.37
2018-09-04T12:08:00.272Z,18.00
2018-09-04T12:09:35.812Z,16.53
2018-09-04T12:11:11.395Z,16.90
2018-09-04T12:12:47.091Z,16.20
2018-09-04T12:14:22.648Z,16.80
2018-09-04T12:15:58.786Z,16.53
2018-09-04T12:17:34.342Z,17.07
2018-09-04T12:19:11.816Z,17.17
2018-09-04T12:20:48.797Z,16.15
2018-09-04T12:22:24.990Z,15.23
2018-09-04T12:24:00.571Z,14.60
2018-09-04T12:25:36.088Z,14.03
2018-09-04T12:27:11.805Z,12.65
2018-09-04T12:28:47.579Z,12.88
2018-09-04T12:30:23.631Z,13.10
2018-09-04T12:31:59.105Z,11.38
2018-09-04T12:33:36.536Z,13.22
2018-09-04T12:35:13.304Z,13.00
2018-09-04T12:36:49.190Z,12.55
2018-09-04T12:38:29.803Z,12.63
2018-09-04T12:40:06.533Z,11.40
2018-09-04T12:41:42.046Z,10.70
2018-09-04T12:43:18.027Z,10.88
2018-09-04T12:44:59.341Z,11.18
2018-09-04T12:46:35.253Z,9.73
2018-09-04T12:48:13.079Z,10.55
2018-09-04T12:49:48.614Z,10.65
2018-09-04T12:51:24.543Z,10.08
2018-09-04T12:53:00.110Z,9.13
2018-09-04T12:54:35.607Z,9.13
2018-09-04T12:56:11.868Z,11.00
2018-09-04T12:57:47.577Z,9.23
2018-09-04T12:59:23.040Z,9.33
2018-09-04T13:00:59.097Z,9.90
2018-09-04T13:02:34.591Z,10.68
2018-09-04T13:04:10.900Z,9.18
2018-09-04T13:05:46.921Z,9.00
2018-09-04T13:07:22.437Z,9.70
2018-09-04T13:08:58.115Z,10.48
2018-09-04T13:10:33.550Z,9.68
2018-09-04T13:12:14.891Z,9.85
2018-09-04T13:16:11.193Z,10.25
2018-09-04T13:18:00.207Z,10.40
2018-09-04T13:19:38.679Z,9.70
2018-09-04T13:21:14.204Z,10.35
2018-09-04T13:22:50.000Z,10.10
2018-09-04T13:24:25.604Z,10.13
2018-09-04T13:26:01.312Z,10.00
2018-09-04T13:27:37.245Z,9.30
2018-09-04T13:29:13.445Z,11.73
2018-09-04T13:30:49.735Z,11.15
2018-09-04T13:32:25.528Z,10.80
2018-09-04T13:34:01.016Z,9.55
2018-09-04T13:35:37.148Z,9.58
2018-09-04T13:37:15.165Z,9.55
2018-09-04T13:38:56.008Z,8.93
2018-09-04T13:40:31.993Z,9.48
2018-09-04T13:42:08.473Z,10.30
2018-09-04T13:43:43.984Z,10.15
2018-09-04T13:45:26.526Z,9.03
2018-09-04T13:47:02.057Z,9.98
2018-09-04T13:48:37.539Z,9.35
2018-09-04T13:50:13.384Z,9.30
2018-09-04T13:51:50.165Z,8.18
2018-09-04T13:53:25.968Z,9.33
2018-09-04T13:55:01.509Z,9.38
2018-09-04T13:56:37.154Z,8.88
2018-09-04T13:58:12.673Z,9.75
2018-09-04T13:59:48.152Z,9.10
2018-09-04T14:01:24.124Z,8.88
2018-09-04T14:02:59.629Z,8.57
2018-09-04T14:04:35.255Z,8.98
2018-09-04T14:06:11.213Z,9.35
2018-09-04T14:07:47.762Z,9.00
2018-09-04T14:09:23.268Z,9.33
2018-09-04T14:10:58.763Z,9.78
2018-09-04T14:12:35.266Z,9.23
2018-09-04T14:14:10.994Z,8.47
2018-09-04T14:15:47.272Z,9.63
2018-09-04T14:17:22.932Z,9.25
2018-09-04T14:18:58.596Z,9.25
2018-09-04T14:20:34.102Z,8.50
2018-09-04T14:22:09.641Z,9.88
2018-09-04T14:23:45.721Z,10.18
2018-09-04T14:25:21.288Z,9.25
2018-09-04T14:26:58.175Z,9.30
2018-09-04T14:28:41.489Z,9.10
2018-09-04T14:30:16.671Z,9.27
2018-09-04T14:31:45.090Z,8.60
2018-09-04T14:33:20.563Z,8.98
2018-09-04T14:34:56.096Z,8.53
2018-09-04T14:36:32.802Z,9.15
2018-09-04T14:38:11.027Z,9.45
2018-09-04T14:39:55.585Z,8.20
2018-09-04T14:41:22.263Z,8.50
2018-09-04T14:42:58.647Z,8.18
2018-09-04T14:44:34.122Z,9.30
2018-09-04T14:46:09.619Z,9.20
2018-09-04T14:47:45.096Z,9.35
2018-09-04T14:49:20.694Z,9.08
2018-09-04T14:50:56.843Z,9.38
2018-09-04T14:52:32.515Z,9.13
2018-09-04T14:54:08.286Z,8.70
2018-09-04T14:55:43.794Z,8.88
2018-09-04T14:57:20.895Z,9.30
2018-09-04T14:58:56.761Z,8.63
2018-09-04T15:00:32.273Z,9.05
2018-09-04T15:02:07.899Z,8.65
2018-09-04T15:03:43.455Z,8.33
2018-09-04T15:05:18.993Z,9.40
2018-09-04T15:06:54.572Z,9.28
2018-09-04T15:08:30.091Z,8.53
2018-09-04T15:10:05.831Z,9.18
2018-09-04T15:11:41.520Z,8.98
2018-09-04T15:13:17.021Z,8.95
2018-09-04T15:14:52.675Z,9.55
2018-09-04T15:16:28.156Z,10.88
2018-09-04T15:18:04.033Z,9.58
2018-09-04T15:19:39.560Z,9.30
2018-09-04T15:21:17.881Z,10.85
2018-09-04T15:22:53.515Z,10.03
2018-09-04T15:24:28.985Z,9.33
2018-09-04T15:26:04.615Z,8.93
2018-09-04T15:27:40.174Z,8.70
2018-09-04T15:29:15.681Z,8.08
2018-09-04T15:30:51.509Z,9.33
2018-09-04T15:32:27.684Z,8.60
2018-09-04T15:34:03.855Z,8.60
2018-09-04T15:35:39.388Z,8.70
2018-09-04T15:37:14.842Z,8.90
2018-09-04T15:38:50.300Z,9.00
2018-09-04T15:40:25.833Z,8.90
2018-09-04T15:42:01.364Z,8.77
2018-09-04T15:43:36.848Z,8.37
2018-09-04T15:45:12.328Z,8.83
2018-09-04T15:46:47.860Z,9.30
2018-09-04T15:48:24.278Z,9.23
2018-09-04T15:49:59.746Z,9.33
2018-09-04T15:51:35.575Z,8.87
2018-09-04T15:53:11.388Z,9.00
2018-09-04T15:54:46.949Z,9.23
2018-09-04T15:56:22.551Z,9.03
2018-09-04T15:57:58.223Z,9.50
2018-09-04T15:59:33.524Z,9.30
2018-09-04T16:01:09.538Z,8.17
2018-09-04T16:02:45.024Z,8.13
2018-09-04T16:04:21.089Z,8.07
2018-09-04T16:05:56.869Z,7.60
2018-09-04T16:07:32.438Z,9.53
2018-09-04T16:09:14.545Z,10.37
2018-09-04T16:10:50.239Z,10.23
2018-09-04T16:12:25.868Z,10.07
2018-09-04T16:14:02.766Z,10.07
2018-09-04T16:15:38.788Z,9.50
2018-09-04T16:17:15.307Z,9.43
2018-09-04T16:18:51.954Z,9.73
2018-09-04T16:20:32.550Z,9.80
2018-09-04T16:22:08.040Z,9.90
2018-09-04T16:23:43.615Z,10.00
2018-09-04T16:25:20.903Z,9.87
2018-09-04T16:26:57.419Z,9.67
2018-09-04T16:28:33.337Z,10.30
2018-09-04T16:30:10.169Z,9.97
2018-09-04T16:31:45.800Z,9.93
2018-09-04T16:33:28.504Z,9.83
2018-09-04T16:35:04.052Z,10.57
2018-09-04T16:36:41.321Z,9.90
2018-09-04T16:38:16.824Z,10.53
2018-09-04T16:39:57.945Z,10.37
2018-09-04T16:41:34.934Z,10.20
2018-09-04T16:43:10.570Z,10.53
2018-09-04T16:44:46.224Z,10.33
2018-09-04T16:46:21.789Z,10.10
2018-09-04T16:47:58.782Z,10.30
2018-09-04T16:49:35.849Z,10.27
2018-09-04T16:51:14.360Z,10.10
2018-09-04T16:52:56.647Z,10.50
2018-09-04T16:54:32.191Z,10.87
2018-09-04T16:56:08.869Z,10.50
2018-09-04T16:57:52.510Z,10.20
2018-09-04T16:59:38.463Z,10.70
2018-09-04T17:04:06.403Z,10.33
2018-09-04T17:05:41.930Z,10.27
2018-09-04T17:07:17.445Z,10.57
2018-09-04T17:08:53.891Z,10.83
2018-09-04T17:10:29.452Z,9.67
2018-09-04T17:12:04.984Z,10.47
2018-09-04T17:13:40.950Z,10.60
2018-09-04T17:15:16.464Z,10.43
2018-09-04T17:16:52.181Z,10.10
2018-09-04T17:18:28.005Z,10.80
2018-09-04T17:20:03.612Z,10.20
2018-09-04T17:21:39.485Z,11.03
2018-09-04T17:23:15.732Z,10.10
2018-09-04T17:24:51.294Z,10.37
2018-09-04T17:26:26.811Z,10.53
2018-09-04T17:28:02.282Z,9.93
2018-09-04T17:29:37.805Z,9.23
2018-09-04T17:31:13.302Z,9.40
2018-09-04T17:32:48.857Z,9.00
2018-09-04T17:34:24.492Z,10.67
2018-09-04T17:36:00.147Z,10.80
2018-09-04T17:37:35.711Z,11.10
2018-09-04T17:39:11.261Z,10.80
2018-09-04T17:40:46.748Z,10.67
2018-09-04T17:42:22.219Z,9.97
2018-09-04T17:43:57.801Z,10.53
2018-09-04T17:45:33.360Z,10.53
2018-09-04T17:47:08.888Z,10.23
2018-09-04T17:48:44.488Z,11.37
2018-09-04T17:50:20.004Z,10.40
2018-09-04T17:51:55.561Z,10.90
2018-09-04T17:53:31.412Z,10.17
2018-09-04T17:55:07.971Z,11.30
2018-09-04T17:56:43.498Z,10.87
2018-09-04T17:58:18.969Z,11.10
2018-09-04T17:59:54.481Z,10.80
2018-09-04T18:01:30.169Z,10.63
2018-09-04T18:03:06.975Z,10.33
2018-09-04T18:04:43.386Z,10.77
2018-09-04T18:06:19.130Z,11.13
2018-09-04T18:07:54.725Z,10.53
2018-09-04T18:09:30.272Z,11.07
2018-09-04T18:11:05.852Z,10.43
2018-09-04T18:12:41.385Z,11.10
2018-09-04T18:14:16.883Z,11.20
2018-09-04T18:15:52.692Z,11.03
2018-09-04T18:17:28.194Z,11.00
2018-09-04T18:19:03.781Z,11.20
2018-09-04T18:20:39.652Z,11.60
2018-09-04T18:22:15.954Z,10.47
2018-09-04T18:23:51.478Z,10.43
2018-09-04T18:25:26.988Z,11.17
2018-09-04T18:27:02.524Z,10.90
2018-09-04T18:28:38.031Z,11.10
2018-09-04T18:30:13.549Z,11.50
2018-09-04T18:31:49.055Z,11.50
2018-09-04T18:33:24.624Z,10.63
2018-09-04T18:35:00.113Z,10.43
2018-09-04T18:36:35.663Z,11.73
2018-09-04T18:38:11.188Z,11.93
2018-09-04T18:39:46.673Z,10.83
2018-09-04T18:41:22.333Z,10.50
2018-09-04T18:42:57.912Z,11.43
2018-09-04T18:44:33.997Z,10.20
2018-09-04T18:46:09.825Z,10.67
2018-09-04T18:47:45.850Z,10.60
2018-09-04T18:49:22.054Z,11.20
2018-09-04T18:50:57.624Z,11.23
2018-09-04T18:52:34.192Z,10.17
2018-09-04T18:54:09.689Z,9.80
2018-09-04T18:55:45.197Z,9.43
2018-09-04T18:57:20.764Z,9.97
2018-09-04T18:58:56.274Z,10.57
2018-09-04T19:00:32.982Z,11.30
2018-09-04T19:02:08.588Z,11.10
2018-09-04T19:03:44.164Z,11.23
2018-09-04T19:05:19.743Z,11.57
2018-09-04T19:06:55.353Z,10.60
2018-09-04T19:08:30.984Z,10.93
2018-09-04T19:10:06.517Z,11.53
2018-09-04T19:11:42.217Z,11.67
2018-09-04T19:13:17.813Z,11.67
2018-09-04T19:14:53.467Z,11.37
2018-09-04T19:16:29.089Z,11.47
2018-09-04T19:18:05.306Z,11.53
2018-09-04T19:19:40.853Z,10.60
2018-09-04T19:21:16.447Z,10.30
2018-09-04T19:22:52.053Z,11.43
2018-09-04T19:24:27.677Z,11.13
2018-09-04T19:26:03.207Z,11.43
2018-09-04T19:27:38.925Z,10.40
2018-09-04T19:29:14.429Z,11.63
2018-09-04T19:30:50.056Z,9.90
2018-09-04T19:32:25.536Z,10.83
2018-09-04T19:34:01.131Z,11.17
2018-09-04T19:35:39.539Z,10.60
2018-09-04T19:37:16.311Z,10.00
2018-09-04T19:38:52.090Z,10.43
2018-09-04T19:40:27.694Z,10.23
2018-09-04T19:42:03.240Z,9.47
2018-09-04T19:43:39.081Z,9.40
2018-09-04T19:45:14.888Z,10.17
2018-09-04T19:46:52.131Z,9.77
2018-09-04T19:48:28.138Z,8.93
2018-09-04T19:50:03.960Z,9.47
2018-09-04T19:51:39.414Z,8.60
2018-09-04T19:53:19.844Z,9.33
2018-09-04T19:54:55.405Z,8.83
2018-09-04T19:56:30.984Z,9.37
2018-09-04T19:58:07.509Z,9.00
2018-09-04T19:59:43.055Z,8.57
2018-09-04T20:01:18.677Z,9.27
2018-09-04T20:02:54.174Z,8.57
2018-09-04T20:04:29.764Z,8.30
2018-09-04T20:06:05.464Z,8.53
2018-09-04T20:07:42.107Z,7.97
2018-09-04T20:09:17.657Z,7.37
2018-09-04T20:10:53.248Z,7.87
2018-09-04T20:12:29.253Z,7.97
2018-09-04T20:14:04.812Z,7.77
2018-09-04T20:15:40.360Z,7.97
2018-09-04T20:17:15.930Z,8.00
2018-09-04T20:18:51.521Z,7.60
2018-09-04T20:20:27.035Z,6.53
2018-09-04T20:22:02.883Z,7.00
2018-09-04T20:23:38.423Z,7.20
2018-09-04T20:25:13.982Z,7.67
2018-09-04T20:26:49.531Z,6.93
2018-09-04T20:28:25.047Z,7.33
2018-09-04T20:30:01.201Z,7.20
2018-09-04T20:31:36.699Z,7.07
2018-09-04T20:33:12.225Z,6.40
2018-09-04T20:34:47.745Z,6.77
2018-09-04T20:36:23.281Z,6.73
2018-09-04T20:37:58.819Z,6.63
2018-09-04T20:39:34.273Z,6.30
2018-09-04T20:41:10.007Z,7.17
2018-09-04T20:42:45.530Z,5.97
2018-09-04T20:44:21.027Z,6.60
2018-09-04T20:45:56.567Z,6.10
2018-09-04T20:47:32.019Z,5.63
2018-09-04T20:49:07.543Z,5.90
2018-09-04T20:50:43.060Z,5.67
2018-09-04T20:52:18.520Z,6.17
2018-09-04T20:53:54.021Z,6.10